createdAt,value
2018-09-12T00:01:44.142Z,67.59
2018-09-12T00:04:14.951Z,67.74
2018-09-12T00:06:43.446Z,67.23
2018-09-12T00:09:13.825Z,67.17
2018-09-12T00:11:43.100Z,67.08
2018-09-12T00:14:11.492Z,68.14
2018-09-12T00:16:39.975Z,67.45
2018-09-12T00:19:09.288Z,67.60
2018-09-12T00:21:38.131Z,68.25
2018-09-12T00:24:06.916Z,68.75
2018-09-12T00:26:35.224Z,69.23
2018-09-12T00:29:03.716Z,69.62
2018-09-12T00:31:32.464Z,69.33
2018-09-12T00:34:01.829Z,69.02
2018-09-12T00:36:30.547Z,69.74
2018-09-12T00:38:59.789Z,69.08
2018-09-12T00:41:28.216Z,69.13
2018-09-12T00:43:56.901Z,69.44
2018-09-12T00:46:25.918Z,69.75
2018-09-12T00:48:54.168Z,70.19
2018-09-12T00:51:23.187Z,70.42
2018-09-12T00:53:51.867Z,71.11
2018-09-12T00:56:22.330Z,70.83
2018-09-12T00:58:51.565Z,70.66
2018-09-12T01:01:20.151Z,70.47
2018-09-12T01:03:50.237Z,70.26
2018-09-12T01:06:18.790Z,70.92
2018-09-12T01:08:47.097Z,70.65
2018-09-12T01:11:15.370Z,70.54
2018-09-12T01:13:44.670Z,71.37
2018-09-12T01:16:13.190Z,71.50
2018-09-12T01:18:43.070Z,71.39
2018-09-12T01:21:12.629Z,71.79
2018-09-12T01:23:41.743Z,71.64
2018-09-12T01:26:10.142Z,71.59
2018-09-12T01:28:38.800Z,71.67
2018-09-12T01:31:08.375Z,72.21
2018-09-12T01:33:37.752Z,72.18
2018-09-12T01:36:06.596Z,72.30
2018-09-12T01:38:36.065Z,72.27
2018-09-12T01:41:04.896Z,72.00
2018-09-12T01:43:33.300Z,72.53
2018-09-12T01:46:04.794Z,72.74
2018-09-12T01:48:34.469Z,72.63
2018-09-12T01:51:05.662Z,72.99
2018-09-12T01:53:34.197Z,72.34
2018-09-12T01:56:04.142Z,72.46
2018-09-12T01:58:35.414Z,72.66
2018-09-12T02:01:03.785Z,73.24
2018-09-12T02:03:32.852Z,73.11
2018-09-12T02:06:02.335Z,72.81
2018-09-12T02:08:32.138Z,72.65
2018-09-12T02:11:02.075Z,71.96
2018-09-12T02:13:30.339Z,72.65
2018-09-12T02:16:00.005Z,72.53
2018-09-12T02:18:29.150Z,72.37
2018-09-12T02:20:58.578Z,72.32
2018-09-12T02:23:26.934Z,72.55
2018-09-12T02:25:56.055Z,72.86
2018-09-12T02:28:25.305Z,72.93
2018-09-12T02:30:53.945Z,72.44
2018-09-12T02:33:22.852Z,72.87
2018-09-12T02:35:57.198Z,73.46
2018-09-12T02:38:26.655Z,73.07
2018-09-12T02:40:55.191Z,73.62
2018-09-12T02:43:23.533Z,74.00
2018-09-12T02:45:53.565Z,74.03
2018-09-12T02:48:23.068Z,73.93
2018-09-12T02:50:52.111Z,73.84
2018-09-12T02:53:21.328Z,73.54
2018-09-12T02:55:49.824Z,73.54
2018-09-12T02:58:18.785Z,74.17
2018-09-12T03:00:47.947Z,74.48
2018-09-12T03:03:17.153Z,74.63
2018-09-12T03:05:46.252Z,73.85
2018-09-12T03:08:14.648Z,74.03
2018-09-12T03:10:43.684Z,74.05
2018-09-12T03:13:12.580Z,73.84
2018-09-12T03:15:42.424Z,74.35
2018-09-12T03:18:10.898Z,74.79
2018-09-12T03:20:39.505Z,74.31
2018-09-12T03:23:07.940Z,74.41
2018-09-12T03:25:36.621Z,75.00
2018-09-12T03:28:05.304Z,74.64
2018-09-12T03:30:34.471Z,74.74
2018-09-12T03:33:04.635Z,74.45
2018-09-12T03:35:37.046Z,75.05
2018-09-12T03:38:05.514Z,74.91
2018-09-12T03:40:34.950Z,75.21
2018-09-12T03:43:04.049Z,75.27
2018-09-12T03:45:32.943Z,75.36
2018-09-12T03:48:02.068Z,75.58
2018-09-12T03:50:31.472Z,75.48
2018-09-12T03:53:00.819Z,75.41
2018-09-12T03:55:29.378Z,75.44
2018-09-12T03:57:58.767Z,76.21
2018-09-12T04:00:27.840Z,75.79
2018-09-12T04:02:58.554Z,75.96
2018-09-12T04:05:26.868Z,76.54
2018-09-12T04:07:55.863Z,76.17
2018-09-12T04:10:24.242Z,76.36
2018-09-12T04:12:53.541Z,76.60
2018-09-12T04:15:21.972Z,76.99
2018-09-12T04:17:50.581Z,77.51
2018-09-12T04:20:18.892Z,76.87
2018-09-12T04:22:47.460Z,77.02
2018-09-12T04:25:17.533Z,77.27
2018-09-12T04:27:45.869Z,77.15
2018-09-12T04:30:15.351Z,77.39
2018-09-12T04:32:44.033Z,78.11
2018-09-12T04:35:12.794Z,77.68
2018-09-12T04:37:41.023Z,77.93
2018-09-12T04:40:11.216Z,78.10
2018-09-12T04:42:39.872Z,77.86
2018-09-12T04:45:15.076Z,78.45
2018-09-12T04:47:44.262Z,77.88
2018-09-12T04:50:12.621Z,77.74
2018-09-12T04:52:41.047Z,77.54
2018-09-12T04:55:10.120Z,77.54
2018-09-12T04:57:40.317Z,77.70
2018-09-12T05:00:09.057Z,77.51
2018-09-12T05:02:37.865Z,77.85
2018-09-12T05:05:07.142Z,77.84
2018-09-12T05:07:36.333Z,77.94
2018-09-12T05:10:05.711Z,77.57
2018-09-12T05:12:34.285Z,77.00
2018-09-12T05:15:03.877Z,76.83
2018-09-12T05:17:32.349Z,76.75
2018-09-12T05:20:03.064Z,76.58
2018-09-12T05:22:34.360Z,76.46
2018-09-12T05:25:02.938Z,76.48
2018-09-12T05:27:32.544Z,76.71
2018-09-12T05:30:01.365Z,76.51
2018-09-12T05:32:29.923Z,76.52
2018-09-12T05:34:59.336Z,76.42
2018-09-12T05:37:28.156Z,75.92
2018-09-12T05:39:58.850Z,75.62
2018-09-12T05:42:27.384Z,75.48
2018-09-12T05:44:57.048Z,74.89
2018-09-12T05:47:25.262Z,74.41
2018-09-12T05:49:54.839Z,73.97
2018-09-12T05:52:23.378Z,73.91
2018-09-12T05:54:52.221Z,74.06
2018-09-12T05:57:20.928Z,73.49
2018-09-12T05:59:50.871Z,72.75
2018-09-12T06:02:19.678Z,72.75
2018-09-12T06:04:49.724Z,72.62
2018-09-12T06:07:18.810Z,72.12
2018-09-12T06:09:48.341Z,72.06
2018-09-12T06:12:18.465Z,71.37
2018-09-12T06:14:47.279Z,69.89
2018-09-12T06:17:15.884Z,69.78
2018-09-12T06:19:44.185Z,69.53
2018-09-12T06:22:13.754Z,69.14
2018-09-12T06:24:44.264Z,68.96
2018-09-12T06:27:12.744Z,67.96
2018-09-12T06:29:41.297Z,68.12
2018-09-12T06:32:10.954Z,67.78
2018-09-12T06:34:39.393Z,66.87
2018-09-12T06:37:07.921Z,66.51
2018-09-12T06:39:36.633Z,65.93
2018-09-12T06:42:04.964Z,65.54
2018-09-12T06:44:34.337Z,65.42
2018-09-12T06:47:04.792Z,64.63
2018-09-12T06:49:33.672Z,64.58
2018-09-12T06:52:02.900Z,64.36
2018-09-12T06:54:31.931Z,62.64
2018-09-12T06:57:00.138Z,61.95
2018-09-12T06:59:30.211Z,62.69
2018-09-12T07:02:00.368Z,61.98
2018-09-12T07:04:28.814Z,61.51
2018-09-12T07:06:57.426Z,60.61
2018-09-12T07:09:26.151Z,61.48
2018-09-12T07:11:55.937Z,60.97
2018-09-12T07:14:25.812Z,59.75
2018-09-12T07:16:55.040Z,60.22
2018-09-12T07:19:23.565Z,59.65
2018-09-12T07:21:52.745Z,59.15
2018-09-12T07:24:21.704Z,58.74
2018-09-12T07:26:51.026Z,58.34
2018-09-12T07:29:20.857Z,57.94
2018-09-12T07:31:50.099Z,58.04
2018-09-12T07:34:18.794Z,58.90
2018-09-12T07:36:47.095Z,58.11
2018-09-12T07:39:16.026Z,56.96
2018-09-12T07:41:46.093Z,57.13
2018-09-12T07:44:14.994Z,56.91
2018-09-12T07:46:43.788Z,56.31
2018-09-12T07:49:13.466Z,55.87
2018-09-12T07:51:42.351Z,55.42
2018-09-12T07:54:10.661Z,55.04
2018-09-12T07:56:38.927Z,54.10
2018-09-12T07:59:08.100Z,55.20
2018-09-12T08:01:36.614Z,53.28
2018-09-12T08:04:05.686Z,53.11
2018-09-12T08:06:36.357Z,53.38
2018-09-12T08:09:09.045Z,53.70
2018-09-12T08:11:38.256Z,52.80
2018-09-12T08:14:06.937Z,52.55
2018-09-12T08:16:35.900Z,51.94
2018-09-12T08:19:11.890Z,52.00
2018-09-12T08:21:41.919Z,51.24
2018-09-12T08:24:10.801Z,51.35
2018-09-12T08:26:39.459Z,51.52
2018-09-12T08:29:08.951Z,51.55
2018-09-12T08:31:37.281Z,51.10
2018-09-12T08:34:07.600Z,50.79
2018-09-12T08:36:36.118Z,49.94
2018-09-12T08:39:07.116Z,49.53
2018-09-12T08:41:35.496Z,48.57
2018-09-12T08:44:04.811Z,48.32
2018-09-12T08:46:33.701Z,48.83
2018-09-12T08:49:02.349Z,48.98
2018-09-12T08:51:31.382Z,48.14
2018-09-12T08:54:00.391Z,47.61
2018-09-12T08:56:28.829Z,47.21
2018-09-12T08:58:58.673Z,46.69
2018-09-12T09:01:27.314Z,46.42
2018-09-12T09:03:56.989Z,46.58
2018-09-12T09:06:25.990Z,45.60
2018-09-12T09:13:54.670Z,44.91
2018-09-12T09:16:23.754Z,44.60
2018-09-12T09:18:53.169Z,44.03
2018-09-12T09:21:21.743Z,44.03
2018-09-12T09:23:51.250Z,43.07
2018-09-12T09:26:20.349Z,43.57
2018-09-12T09:28:50.828Z,42.88
2018-09-12T09:31:19.785Z,42.91
2018-09-12T09:33:48.245Z,42.41
2018-09-12T09:36:18.330Z,41.87
2018-09-12T09:38:46.953Z,41.35
2018-09-12T09:41:15.918Z,41.22
2018-09-12T09:43:45.011Z,40.64
2018-09-12T09:46:14.137Z,40.83
2018-09-12T09:48:44.253Z,41.37
2018-09-12T09:51:12.853Z,40.77
2018-09-12T09:53:42.016Z,40.28
2018-09-12T09:56:10.607Z,39.86
2018-09-12T09:58:39.124Z,39.01
2018-09-12T10:01:13.124Z,38.94
2018-09-12T10:04:44.988Z,38.95
2018-09-12T10:07:19.498Z,39.00
2018-09-12T10:09:51.644Z,39.01
2018-09-12T10:12:19.975Z,38.23
2018-09-12T10:14:48.202Z,37.77
2018-09-12T10:17:16.751Z,37.34
2018-09-12T10:19:46.003Z,35.91
2018-09-12T10:22:14.304Z,35.02
2018-09-12T10:24:43.080Z,34.59
2018-09-12T10:27:11.575Z,34.57
2018-09-12T10:29:40.450Z,33.97
2018-09-12T10:32:08.944Z,33.85
2018-09-12T10:34:42.328Z,33.36
2018-09-12T10:37:11.912Z,32.77
2018-09-12T10:39:40.978Z,33.51
2018-09-12T10:42:09.791Z,33.27
2018-09-12T10:44:37.975Z,32.36
2018-09-12T10:47:06.476Z,31.53
2018-09-12T10:49:35.034Z,31.41
2018-09-12T10:52:03.692Z,31.22
2018-09-12T10:54:32.943Z,32.10
2018-09-12T10:57:02.532Z,30.99
2018-09-12T10:59:31.035Z,29.51
2018-09-12T11:01:59.308Z,29.05
2018-09-12T11:04:28.035Z,29.76
2018-09-12T11:06:56.196Z,29.89
2018-09-12T11:09:25.072Z,29.16
2018-09-12T11:11:53.590Z,27.77
2018-09-12T11:14:22.205Z,28.78
2018-09-12T11:16:50.443Z,28.69
2018-09-12T11:19:19.182Z,29.11
2018-09-12T11:21:47.554Z,29.11
2018-09-12T11:24:15.717Z,29.49
2018-09-12T11:26:44.048Z,30.60
2018-09-12T11:29:12.900Z,31.00
2018-09-12T11:31:41.187Z,30.01
2018-09-12T11:34:09.476Z,28.98
2018-09-12T11:36:38.028Z,28.70
2018-09-12T11:39:09.418Z,29.43
2018-09-12T11:41:37.865Z,28.40
2018-09-12T11:44:06.324Z,28.45
2018-09-12T11:46:34.817Z,28.56
2018-09-12T11:49:03.314Z,28.01
2018-09-12T11:51:31.628Z,27.35
2018-09-12T11:54:00.541Z,26.93
2018-09-12T11:56:29.304Z,27.30
2018-09-12T11:58:57.852Z,27.23
2018-09-12T12:01:26.312Z,26.74
2018-09-12T12:03:54.842Z,27.08
2018-09-12T12:06:24.434Z,26.73
2018-09-12T12:08:53.276Z,24.77
2018-09-12T12:11:21.483Z,25.31
2018-09-12T12:13:53.359Z,25.10
2018-09-12T12:16:21.840Z,23.94
2018-09-12T12:18:50.758Z,24.25
2018-09-12T12:21:19.437Z,24.63
2018-09-12T12:23:47.679Z,24.25
2018-09-12T12:26:15.893Z,24.13
2018-09-12T12:28:44.204Z,23.81
2018-09-12T12:31:12.748Z,24.24
2018-09-12T12:33:40.993Z,24.54
2018-09-12T12:36:09.829Z,23.92
2018-09-12T12:38:38.086Z,24.40
2018-09-12T12:41:06.901Z,23.99
2018-09-12T12:43:35.157Z,23.46
2018-09-12T12:46:03.703Z,23.15
2018-09-12T12:48:32.257Z,23.87
2018-09-12T12:51:00.806Z,24.45
2018-09-12T12:53:29.365Z,24.27
2018-09-12T12:55:57.695Z,24.54
2018-09-12T12:58:26.020Z,23.76
2018-09-12T13:00:54.243Z,23.40
2018-09-12T13:03:23.045Z,22.79
2018-09-12T13:05:51.927Z,23.44
2018-09-12T13:08:20.458Z,23.45
2018-09-12T13:10:49.036Z,23.70
2018-09-12T13:13:17.312Z,23.14
2018-09-12T13:15:45.926Z,21.73
2018-09-12T13:18:14.662Z,20.60
2018-09-12T13:20:43.560Z,19.80
2018-09-12T13:23:12.034Z,19.69
2018-09-12T13:25:40.493Z,17.85
2018-09-12T13:28:08.704Z,17.15
2018-09-12T13:30:37.205Z,17.27
2018-09-12T13:33:06.015Z,16.32
2018-09-12T13:35:34.470Z,16.54
2018-09-12T13:38:02.931Z,16.09
2018-09-12T13:40:31.408Z,14.98
2018-09-12T13:43:00.319Z,14.31
2018-09-12T13:45:28.522Z,14.46
2018-09-12T13:47:56.736Z,13.55
2018-09-12T13:50:24.949Z,13.90
2018-09-12T13:52:53.754Z,13.69
2018-09-12T13:55:22.244Z,13.58
2018-09-12T13:57:51.012Z,13.07
2018-09-12T14:00:19.571Z,12.03
2018-09-12T14:02:48.173Z,12.06
2018-09-12T14:05:17.272Z,12.82
2018-09-12T14:07:45.892Z,13.48
2018-09-12T14:10:14.095Z,12.53
2018-09-12T14:12:43.066Z,12.53
2018-09-12T14:15:11.691Z,11.55
2018-09-12T14:17:40.814Z,10.63
2018-09-12T14:20:10.526Z,11.49
2018-09-12T14:22:38.878Z,11.39
2018-09-12T14:25:07.457Z,11.27
2018-09-12T14:27:35.716Z,11.08
2018-09-12T14:30:04.072Z,12.21
2018-09-12T14:32:33.034Z,10.84
2018-09-12T14:35:01.273Z,11.44
2018-09-12T14:37:29.535Z,12.35
2018-09-12T14:39:57.823Z,13.41
2018-09-12T14:42:26.377Z,14.42
2018-09-12T14:44:54.671Z,13.98
2018-09-12T14:47:22.898Z,14.28
2018-09-12T14:49:51.448Z,14.94
2018-09-12T14:52:20.361Z,15.23
2018-09-12T14:54:48.704Z,14.54
2018-09-12T14:57:17.238Z,15.34
2018-09-12T14:59:45.434Z,17.68
2018-09-12T15:02:13.638Z,16.84
2018-09-12T15:04:41.878Z,15.30
2018-09-12T15:07:10.167Z,16.60
2018-09-12T15:09:38.617Z,18.06
2018-09-12T15:12:07.016Z,19.11
2018-09-12T15:14:35.561Z,17.23
2018-09-12T15:17:04.193Z,15.53
2018-09-12T15:19:32.417Z,14.75
2018-09-12T15:22:01.271Z,13.81
2018-09-12T15:24:30.311Z,14.56
2018-09-12T15:26:59.051Z,12.96
2018-09-12T15:29:27.295Z,14.62
2018-09-12T15:31:56.372Z,16.78
2018-09-12T15:34:24.751Z,15.08
2018-09-12T15:36:53.406Z,15.30
2018-09-12T15:39:22.526Z,15.26
2018-09-12T15:41:51.148Z,17.60
2018-09-12T15:44:19.414Z,20.41
2018-09-12T15:46:47.636Z,21.28
2018-09-12T15:49:17.312Z,22.24
2018-09-12T15:51:45.684Z,22.46
2018-09-12T15:54:14.055Z,24.22
2018-09-12T15:56:42.585Z,24.32
2018-09-12T15:59:10.970Z,24.65
2018-09-12T16:01:39.216Z,23.71
2018-09-12T16:04:07.778Z,20.17
2018-09-12T16:06:36.385Z,20.99
2018-09-12T16:11:36.555Z,24.64
2018-09-12T16:14:04.924Z,25.97
2018-09-12T16:16:33.404Z,26.37
2018-09-12T16:19:01.847Z,27.13
2018-09-12T16:21:30.790Z,27.79
2018-09-12T16:23:59.252Z,28.46
2018-09-12T16:26:27.473Z,28.54
2018-09-12T16:28:55.945Z,28.68
2018-09-12T16:31:24.570Z,29.42
2018-09-12T16:33:53.108Z,29.05
2018-09-12T16:36:21.422Z,29.74
2018-09-12T16:38:50.156Z,30.25
2018-09-12T16:41:18.668Z,30.15
2018-09-12T16:43:46.893Z,29.52
2018-09-12T16:46:15.464Z,26.55
2018-09-12T16:48:44.120Z,24.87
2018-09-12T16:51:13.241Z,23.69
2018-09-12T16:53:41.407Z,24.36
2018-09-12T16:56:09.720Z,25.75
2018-09-12T16:58:37.904Z,28.20
2018-09-12T17:01:07.220Z,29.15
2018-09-12T17:03:35.677Z,29.53
2018-09-12T17:06:03.896Z,30.04
2018-09-12T17:08:32.463Z,31.19
2018-09-12T17:11:01.326Z,31.20
2018-09-12T17:13:29.599Z,31.49
2018-09-12T17:15:58.787Z,31.96
2018-09-12T17:18:26.953Z,32.61
2018-09-12T17:20:55.192Z,33.11
2018-09-12T17:23:23.846Z,33.53
2018-09-12T17:25:52.781Z,33.56
2018-09-12T17:28:21.609Z,33.85
2018-09-12T17:30:50.081Z,34.43
2018-09-12T17:33:18.824Z,35.48
2018-09-12T17:35:48.169Z,36.21
2018-09-12T17:38:16.701Z,36.76
2018-09-12T17:40:45.273Z,36.69
2018-09-12T17:43:13.972Z,37.27
2018-09-12T17:45:42.868Z,37.62
2018-09-12T17:48:11.127Z,38.00
2018-09-12T17:50:40.649Z,38.72
2018-09-12T17:53:09.631Z,39.28
2018-09-12T17:55:38.280Z,39.70
2018-09-12T17:58:06.953Z,39.71
2018-09-12T18:00:36.473Z,40.45
2018-09-12T18:03:05.465Z,40.52
2018-09-12T18:05:34.154Z,41.01
2018-09-12T18:08:03.089Z,41.30
2018-09-12T18:10:32.977Z,42.08
2018-09-12T18:13:01.209Z,42.13
2018-09-12T18:15:29.760Z,42.86
2018-09-12T18:17:58.362Z,43.10
2018-09-12T18:20:26.940Z,43.77
2018-09-12T18:22:55.803Z,43.05
2018-09-12T18:25:25.098Z,43.54
2018-09-12T18:27:53.391Z,43.68
2018-09-12T18:30:22.609Z,43.97
2018-09-12T18:32:51.397Z,43.54
2018-09-12T18:35:20.489Z,43.38
2018-09-12T18:37:50.220Z,44.13
2018-09-12T18:40:18.515Z,44.37
2018-09-12T18:42:47.919Z,44.58
2018-09-12T18:45:16.744Z,44.82
2018-09-12T18:47:45.078Z,45.54
2018-09-12T18:50:13.981Z,45.77
2018-09-12T18:52:42.559Z,46.21
2018-09-12T18:55:11.153Z,46.15
2018-09-12T18:57:39.462Z,46.25
2018-09-12T19:00:08.006Z,45.97
2018-09-12T19:02:36.651Z,45.89
2018-09-12T19:05:05.821Z,45.74
2018-09-12T19:07:34.418Z,46.17
2018-09-12T19:10:04.485Z,46.65
2018-09-12T19:12:33.440Z,47.08
2018-09-12T19:15:02.086Z,47.41
2018-09-12T19:17:30.514Z,47.95
2018-09-12T19:19:59.286Z,47.65
2018-09-12T19:22:34.721Z,47.53
2018-09-12T19:25:03.524Z,47.63
2018-09-12T19:27:32.269Z,47.45
2018-09-12T19:30:01.368Z,48.64
2018-09-12T19:32:30.471Z,48.59
2018-09-12T19:35:05.638Z,48.13
2018-09-12T19:37:34.315Z,48.38
2018-09-12T19:40:02.670Z,49.19
2018-09-12T19:42:31.480Z,49.31
2018-09-12T19:45:00.286Z,49.07
2018-09-12T19:47:28.518Z,49.02
2018-09-12T19:49:57.585Z,49.22
2018-09-12T19:52:26.004Z,49.23
2018-09-12T19:54:54.342Z,49.58
2018-09-12T19:57:22.907Z,49.63
2018-09-12T19:59:51.425Z,49.67
2018-09-12T20:02:28.320Z,49.56
2018-09-12T20:04:57.922Z,49.74
2018-09-12T20:07:27.757Z,49.65
2018-09-12T20:09:57.084Z,50.12
2018-09-12T20:12:25.847Z,49.90
2018-09-12T20:14:54.383Z,49.55
2018-09-12T20:17:22.996Z,49.22
2018-09-12T20:19:52.667Z,47.84
2018-09-12T20:22:21.865Z,47.33
2018-09-12T20:24:50.180Z,46.67
2018-09-12T20:27:19.044Z,47.29
2018-09-12T20:29:47.717Z,48.65
2018-09-12T20:32:16.317Z,50.98
2018-09-12T20:34:45.607Z,52.59
2018-09-12T20:37:15.170Z,55.81
2018-09-12T20:39:43.905Z,59.73
2018-09-12T20:42:12.656Z,61.64
2018-09-12T20:44:41.740Z,63.87
2018-09-12T20:47:10.293Z,65.03
2018-09-12T20:49:38.849Z,67.97
2018-09-12T20:52:07.815Z,65.84
2018-09-12T20:54:36.547Z,69.80
2018-09-12T20:57:06.094Z,73.21
2018-09-12T20:59:34.628Z,73.23
2018-09-12T21:02:03.244Z,72.43
2018-09-12T21:04:32.427Z,72.94
2018-09-12T21:07:02.368Z,74.38
2018-09-12T21:09:30.842Z,73.12
2018-09-12T21:14:35.730Z,76.21
2018-09-12T21:17:04.139Z,75.24
2018-09-12T21:19:32.582Z,75.29
2018-09-12T21:22:00.828Z,76.11
2018-09-12T21:24:29.760Z,76.15
2018-09-12T21:26:58.235Z,74.66
2018-09-12T21:29:27.253Z,74.55
2018-09-12T21:31:56.035Z,76.83
2018-09-12T21:34:24.313Z,74.29
2018-09-12T21:36:52.500Z,74.64
2018-09-12T21:39:20.866Z,74.57
2018-09-12T21:41:50.227Z,75.30
2018-09-12T21:44:18.443Z,76.70
2018-09-12T21:46:46.727Z,79.80
2018-09-12T21:49:16.153Z,82.33
2018-09-12T21:51:44.814Z,81.21
2018-09-12T21:54:13.385Z,81.17
2018-09-12T21:56:41.692Z,81.85
2018-09-12T21:59:10.970Z,81.42
2018-09-12T22:01:39.746Z,81.16
2018-09-12T22:04:08.542Z,81.86
2018-09-12T22:06:37.128Z,81.78
2018-09-12T22:09:11.521Z,81.49
2018-09-12T22:11:39.958Z,81.93
2018-09-12T22:14:08.776Z,82.12
2018-09-12T22:16:37.600Z,83.27
2018-09-12T22:19:06.368Z,83.04
2018-09-12T22:21:34.798Z,83.04
2018-09-12T22:24:03.008Z,83.65
2018-09-12T22:26:31.230Z,82.91
2018-09-12T22:28:59.522Z,83.03
2018-09-12T22:31:28.187Z,83.83
2018-09-12T22:33:56.665Z,84.02
2018-09-12T22:36:24.845Z,83.86
2018-09-12T22:38:53.344Z,83.10
2018-09-12T22:41:21.555Z,83.55
2018-09-12T22:43:50.176Z,86.60
2018-09-12T22:46:18.956Z,86.41
2018-09-12T22:48:47.745Z,86.22
2018-09-12T22:51:16.655Z,86.07
2018-09-12T22:53:44.895Z,85.44
2018-09-12T22:56:13.165Z,84.15
2018-09-12T22:58:42.020Z,84.21
2018-09-12T23:01:10.871Z,85.68
2018-09-12T23:03:39.252Z,87.04
2018-09-12T23:06:14.424Z,87.70
2018-09-12T23:08:43.542Z,86.91
2018-09-12T23:11:12.773Z,86.32
2018-09-12T23:13:41.297Z,86.41
2018-09-12T23:16:09.844Z,85.09
2018-09-12T23:18:38.471Z,84.52
2018-09-12T23:21:06.678Z,84.31
2018-09-12T23:23:35.936Z,83.68
2018-09-12T23:26:04.339Z,83.19
2018-09-12T23:28:32.573Z,81.86
2018-09-12T23:31:00.764Z,82.76
2018-09-12T23:33:29.283Z,83.45
2018-09-12T23:35:58.419Z,83.69
2018-09-12T23:38:26.975Z,84.70
2018-09-12T23:40:55.499Z,84.33
2018-09-12T23:43:24.365Z,84.63
2018-09-12T23:45:53.094Z,84.58
2018-09-12T23:48:21.878Z,83.79
2018-09-12T23:50:50.129Z,83.70
2018-09-12T23:53:18.430Z,83.93
2018-09-12T23:55:46.976Z,84.71
2018-09-12T23:58:15.192Z,85.44
